Terminal Aerodrome Forecast
Issued by NWS Brownsville, TX

Home | Current Version | Previous Version | Text Only | Print | Product List | Glossary On
Versions: 1 2 3 4 5 6 7 8 9 10 11 12 13 14 15 16
000
FTUS44 KBRO 302320
TAFHRL
TAF
KHRL 302320Z 3100/3124 13017KT P6SM BKN250
     FM310200 14007KT P6SM FEW025
     FM311500 15012KT P6SM SCT040
      TEMPO 3116/3120 TSRA BKN030CB=

USA.gov is the U.S. government's official web portal to all federal, state and local government web resources and services.